Time;durP1;ratioP1;P1;durP2;ratioP2;P2;SDS_P1;SDS_P2;PMS_P1;PMS_P2;Temp;Humidity;BMP_temperature;BMP_pressure;BME280_temperature;BME280_humidity;BME280_pressure;Samples;Min_cycle;Max_cycle;Signal;HPM_P1;HPM_P2
2023/04/11 00:01:18;;;;;;;;;3.50;1.25;;;;;;;;5129315;27;50218;-72
2023/04/11 00:03:43;;;;;;;;;1.25;0.50;;;;;;;;5129039;27;49741;-73
2023/04/11 00:06:09;;;;;;;;;2.00;1.00;;;;;;;;5130265;27;49975;-73
2023/04/11 00:08:34;;;;;;;;;2.00;2.00;;;;;;;;5130321;27;49993;-74
2023/04/11 00:10:59;;;;;;;;;4.00;2.00;;;;;;;;5130207;27;50026;-73
2023/04/11 00:13:25;;;;;;;;;0.00;0.00;;;;;;;;5107238;27;50033;-73
2023/04/11 00:15:54;;;;;;;;;2.00;2.00;;;;;;;;5111600;27;49976;-74
2023/04/11 00:18:19;;;;;;;;;2.50;0.75;;;;;;;;5130256;27;49795;-73
2023/04/11 00:20:44;;;;;;;;;0.75;0.75;;;;;;;;5130218;27;51528;-73
2023/04/11 00:23:09;;;;;;;;;2.25;1.50;;;;;;;;5130006;27;49805;-73
2023/04/11 00:25:36;;;;;;;;;1.00;1.00;;;;;;;;5130144;27;50145;-73
2023/04/11 00:28:01;;;;;;;;;1.00;0.00;;;;;;;;5116768;27;50067;-71
2023/04/11 00:30:26;;;;;;;;;0.75;0.75;;;;;;;;5128785;27;49732;-73
2023/04/11 00:32:51;;;;;;;;;0.00;0.00;;;;;;;;5129791;27;49798;-73
2023/04/11 00:35:16;;;;;;;;;3.00;2.00;;;;;;;;5130380;27;49728;-74
2023/04/11 00:37:43;;;;;;;;;1.75;1.00;;;;;;;;5129890;27;49693;-73
2023/04/11 00:40:11;;;;;;;;;2.00;2.00;;;;;;;;5111112;27;51545;-74
2023/04/11 00:42:36;;;;;;;;;1.00;1.00;;;;;;;;5129357;27;49641;-73
2023/04/11 00:45:01;;;;;;;;;1.00;0.25;;;;;;;;5129707;27;49945;-73
2023/04/11 00:47:26;;;;;;;;;2.00;2.00;;;;;;;;5129903;27;50008;-73
2023/04/11 00:49:52;;;;;;;;;0.25;0.25;;;;;;;;5128813;27;50021;-73
2023/04/11 00:52:18;;;;;;;;;7.00;2.00;;;;;;;;5129653;27;49816;-73
2023/04/11 00:54:43;;;;;;;;;1.00;1.00;;;;;;;;5129745;27;49814;-73
2023/04/11 00:57:08;;;;;;;;;1.25;1.25;;;;;;;;5128843;27;50025;-73
2023/04/11 00:59:34;;;;;;;;;0.00;0.00;;;;;;;;5129095;27;51788;-73
2023/04/11 01:02:00;;;;;;;;;2.00;0.00;;;;;;;;5129092;27;50168;-73
2023/04/11 01:04:25;;;;;;;;;0.00;0.00;;;;;;;;5130476;27;50103;-73
2023/04/11 01:06:53;;;;;;;;;1.00;1.00;;;;;;;;5133303;27;50092;-73
2023/04/11 01:09:23;;;;;;;;;0.00;0.00;;;;;;;;5131963;27;49779;-73
2023/04/11 01:11:48;;;;;;;;;3.50;2.00;;;;;;;;5131604;27;49804;-73
2023/04/11 01:14:14;;;;;;;;;1.50;1.50;;;;;;;;5132417;27;49950;-73
2023/04/11 01:16:40;;;;;;;;;2.00;0.00;;;;;;;;5133006;27;50177;-73
2023/04/11 01:19:05;;;;;;;;;0.75;0.50;;;;;;;;5125907;27;50410;-73
2023/04/11 01:21:31;;;;;;;;;1.00;0.00;;;;;;;;5132905;27;49735;-73
2023/04/11 01:23:57;;;;;;;;;1.00;1.00;;;;;;;;5132890;27;49798;-73
2023/04/11 01:26:22;;;;;;;;;1.00;1.00;;;;;;;;5132806;27;50054;-73
2023/04/11 01:28:47;;;;;;;;;2.75;1.75;;;;;;;;5132431;27;51323;-73
2023/04/11 01:31:12;;;;;;;;;2.00;2.00;;;;;;;;5132703;27;50045;-73
2023/04/11 01:33:38;;;;;;;;;3.00;2.00;;;;;;;;5132939;27;49652;-73
2023/04/11 01:36:04;;;;;;;;;2.25;0.75;;;;;;;;5132872;27;50126;-73
2023/04/11 01:38:29;;;;;;;;;0.75;0.75;;;;;;;;5127653;27;51922;-73
2023/04/11 01:40:56;;;;;;;;;6.00;1.00;;;;;;;;5132233;27;49964;-73
2023/04/11 01:43:21;;;;;;;;;2.00;1.00;;;;;;;;5132574;27;49815;-73
2023/04/11 01:45:46;;;;;;;;;2.00;2.00;;;;;;;;5132518;27;49642;-73
2023/04/11 01:48:13;;;;;;;;;0.25;0.25;;;;;;;;5132563;27;50641;-73
2023/04/11 01:50:38;;;;;;;;;1.00;1.00;;;;;;;;5132335;27;50019;-73
2023/04/11 01:53:03;;;;;;;;;0.00;0.00;;;;;;;;5132640;27;49787;-73
2023/04/11 01:55:29;;;;;;;;;6.00;2.75;;;;;;;;5132610;27;49882;-73
2023/04/11 01:57:54;;;;;;;;;0.50;0.25;;;;;;;;5131187;27;50874;-73
2023/04/11 02:00:19;;;;;;;;;2.00;2.00;;;;;;;;5113693;27;50129;-73
2023/04/11 02:02:45;;;;;;;;;1.00;1.00;;;;;;;;5132278;27;50230;-74
2023/04/11 02:05:10;;;;;;;;;2.50;1.00;;;;;;;;5132581;27;49699;-73
2023/04/11 02:07:36;;;;;;;;;2.25;2.25;;;;;;;;5118763;27;50627;-74
2023/04/11 02:10:01;;;;;;;;;1.00;1.00;;;;;;;;5132209;27;50268;-73
2023/04/11 02:12:26;;;;;;;;;1.75;1.25;;;;;;;;5131973;27;49889;-74
2023/04/11 02:14:52;;;;;;;;;0.00;0.00;;;;;;;;5130950;27;50065;-73
2023/04/11 02:17:17;;;;;;;;;1.75;1.25;;;;;;;;5131710;27;49773;-73
2023/04/11 02:19:44;;;;;;;;;2.50;1.00;;;;;;;;5132480;27;50731;-73
2023/04/11 02:22:09;;;;;;;;;3.75;2.25;;;;;;;;5132009;27;49724;-74
2023/04/11 02:24:34;;;;;;;;;3.25;1.75;;;;;;;;5131982;27;50037;-73
2023/04/11 02:27:00;;;;;;;;;2.00;1.00;;;;;;;;5131615;27;50059;-73
2023/04/11 02:29:26;;;;;;;;;2.00;1.00;;;;;;;;5131889;27;50211;-73
2023/04/11 02:31:51;;;;;;;;;0.25;0.25;;;;;;;;5130876;27;49658;-73
2023/04/11 02:34:16;;;;;;;;;0.00;0.00;;;;;;;;5131146;27;49812;-74
2023/04/11 02:36:42;;;;;;;;;2.75;2.75;;;;;;;;5112171;27;52739;-74
2023/04/11 02:39:07;;;;;;;;;7.00;3.00;;;;;;;;5131454;27;49770;-73
2023/04/11 02:41:33;;;;;;;;;2.75;1.00;;;;;;;;5131131;27;49736;-73
2023/04/11 02:43:58;;;;;;;;;3.00;1.75;;;;;;;;5131999;27;49957;-74
2023/04/11 02:46:23;;;;;;;;;2.25;1.75;;;;;;;;5131209;27;50618;-73
2023/04/11 02:48:48;;;;;;;;;6.00;3.50;;;;;;;;5131595;27;50110;-74
2023/04/11 02:51:13;;;;;;;;;6.00;2.50;;;;;;;;5112745;27;49852;-73
2023/04/11 02:53:39;;;;;;;;;6.50;3.25;;;;;;;;5131615;27;49732;-74
2023/04/11 02:56:06;;;;;;;;;3.00;0.00;;;;;;;;5130750;27;50082;-74
2023/04/11 02:58:31;;;;;;;;;5.25;3.00;;;;;;;;5130502;27;49719;-73
2023/04/11 03:00:56;;;;;;;;;2.75;1.75;;;;;;;;5131210;27;49901;-73
2023/04/11 03:03:22;;;;;;;;;4.00;2.00;;;;;;;;5131684;27;50033;-74
2023/04/11 03:05:47;;;;;;;;;4.00;1.50;;;;;;;;5130756;27;50211;-74
2023/04/11 03:08:12;;;;;;;;;2.00;1.00;;;;;;;;5131258;27;50006;-74
2023/04/11 03:10:37;;;;;;;;;1.25;1.00;;;;;;;;5131307;27;50232;-73
2023/04/11 03:13:02;;;;;;;;;2.25;2.00;;;;;;;;5127145;27;49726;-74
2023/04/11 03:15:30;;;;;;;;;7.50;1.50;;;;;;;;5129262;27;50615;-73
2023/04/11 03:17:55;;;;;;;;;1.00;1.00;;;;;;;;5112324;27;49975;-74
2023/04/11 03:20:20;;;;;;;;;2.25;1.50;;;;;;;;5131300;27;49800;-73
2023/04/11 03:22:46;;;;;;;;;2.00;1.75;;;;;;;;5100681;27;50085;-74
2023/04/11 03:25:11;;;;;;;;;3.50;1.75;;;;;;;;5128879;27;49771;-73
2023/04/11 03:27:36;;;;;;;;;7.75;2.00;;;;;;;;5129872;27;49949;-74
2023/04/11 03:30:02;;;;;;;;;2.00;1.25;;;;;;;;5130739;27;50017;-74
2023/04/11 03:32:27;;;;;;;;;2.50;1.50;;;;;;;;5130970;27;49990;-74
2023/04/11 03:34:52;;;;;;;;;2.75;2.00;;;;;;;;5130508;27;50663;-74
2023/04/11 03:37:18;;;;;;;;;7.50;1.00;;;;;;;;5130758;27;49777;-73
2023/04/11 03:39:43;;;;;;;;;2.00;2.00;;;;;;;;5129726;27;50102;-73
2023/04/11 03:42:08;;;;;;;;;3.25;1.50;;;;;;;;5130838;27;49719;-74
2023/04/11 03:44:33;;;;;;;;;2.00;1.00;;;;;;;;5130490;27;50502;-73
2023/04/11 03:46:58;;;;;;;;;2.00;0.50;;;;;;;;5130703;27;50050;-73
2023/04/11 03:49:24;;;;;;;;;5.75;2.25;;;;;;;;5130397;27;49909;-74
2023/04/11 03:51:49;;;;;;;;;1.25;1.25;;;;;;;;5130845;27;50108;-74
2023/04/11 03:54:14;;;;;;;;;1.75;1.75;;;;;;;;5129988;27;50551;-74
2023/04/11 03:56:40;;;;;;;;;3.00;2.00;;;;;;;;5130474;27;49741;-74
2023/04/11 03:59:05;;;;;;;;;3.00;3.00;;;;;;;;5112044;27;49898;-73
2023/04/11 04:01:31;;;;;;;;;3.00;3.00;;;;;;;;5130562;27;49926;-74
2023/04/11 04:03:56;;;;;;;;;1.75;1.00;;;;;;;;5130069;27;49735;-74
2023/04/11 04:06:21;;;;;;;;;2.00;2.00;;;;;;;;5105368;27;49843;-74
2023/04/11 04:08:46;;;;;;;;;3.00;3.00;;;;;;;;5118400;27;49847;-74
2023/04/11 04:11:12;;;;;;;;;3.75;2.50;;;;;;;;5125487;27;50124;-74
2023/04/11 04:13:37;;;;;;;;;3.00;2.25;;;;;;;;5107746;27;51561;-73
2023/04/11 04:16:02;;;;;;;;;2.25;1.00;;;;;;;;5124564;27;50094;-73
2023/04/11 04:18:27;;;;;;;;;1.75;1.75;;;;;;;;5126129;27;50148;-71
2023/04/11 04:20:53;;;;;;;;;7.75;1.75;;;;;;;;5130357;27;49763;-72
2023/04/11 04:23:18;;;;;;;;;0.75;0.75;;;;;;;;5122289;27;50697;-72
2023/04/11 04:25:46;;;;;;;;;7.25;3.75;;;;;;;;5128566;27;49615;-72
2023/04/11 04:28:13;;;;;;;;;2.25;2.25;;;;;;;;5118597;27;49691;-72
2023/04/11 04:30:38;;;;;;;;;4.25;2.50;;;;;;;;5127071;27;50115;-72
2023/04/11 04:33:03;;;;;;;;;7.25;3.50;;;;;;;;5121818;27;50072;-72
2023/04/11 04:35:28;;;;;;;;;1.00;1.00;;;;;;;;5128258;27;49938;-72
2023/04/11 04:37:54;;;;;;;;;3.00;3.00;;;;;;;;5127463;27;50075;-72
2023/04/11 04:40:19;;;;;;;;;4.00;1.00;;;;;;;;5128492;27;50073;-72
2023/04/11 04:42:48;;;;;;;;;2.00;2.00;;;;;;;;5100943;27;49830;-73
2023/04/11 04:45:13;;;;;;;;;3.00;1.75;;;;;;;;5109258;27;49736;-73
2023/04/11 04:47:39;;;;;;;;;5.00;1.00;;;;;;;;5108110;27;49810;-73
2023/04/11 04:50:04;;;;;;;;;2.00;0.75;;;;;;;;5090813;27;50375;-74
2023/04/11 04:52:30;;;;;;;;;0.00;0.00;;;;;;;;5107542;27;51306;-73
2023/04/11 04:54:58;;;;;;;;;2.00;1.00;;;;;;;;5109496;27;49724;-74
2023/04/11 04:57:24;;;;;;;;;3.50;1.00;;;;;;;;5109008;27;50204;-73
2023/04/11 04:59:49;;;;;;;;;2.00;2.00;;;;;;;;5109653;27;49695;-73
2023/04/11 05:02:16;;;;;;;;;1.50;1.00;;;;;;;;5090194;27;51675;-74
2023/04/11 05:04:41;;;;;;;;;3.50;2.00;;;;;;;;5090522;27;50133;-73
2023/04/11 05:07:06;;;;;;;;;3.00;2.00;;;;;;;;5106659;27;49823;-73
2023/04/11 05:09:31;;;;;;;;;2.25;1.25;;;;;;;;5109298;27;49715;-74
2023/04/11 05:11:56;;;;;;;;;5.00;3.50;;;;;;;;5107575;27;49708;-74
2023/04/11 05:14:22;;;;;;;;;3.25;2.00;;;;;;;;5107538;27;50103;-82
2023/04/11 05:16:47;;;;;;;;;2.75;1.00;;;;;;;;5107248;27;49851;-78
2023/04/11 05:19:12;;;;;;;;;2.00;2.00;;;;;;;;5107169;27;50360;-82
2023/04/11 05:21:38;;;;;;;;;5.00;3.50;;;;;;;;5106040;27;50277;-80
2023/04/11 05:24:03;;;;;;;;;2.75;1.50;;;;;;;;5109036;27;49763;-79
2023/04/11 05:26:28;;;;;;;;;2.50;1.25;;;;;;;;5108626;27;49735;-78
2023/04/11 06:21:20;;;;;;;;;6.00;2.00;;;;;;;;5011287;22;52015;-67
2023/04/11 06:23:46;;;;;;;;;1.75;1.75;;;;;;;;5106553;27;49820;-68
2023/04/11 06:26:11;;;;;;;;;2.00;2.00;;;;;;;;5092086;27;51302;-68
2023/04/11 06:28:36;;;;;;;;;1.00;1.00;;;;;;;;5093237;27;50046;-69
2023/04/11 06:31:02;;;;;;;;;3.50;3.50;;;;;;;;5111530;27;49682;-67
2023/04/11 06:33:27;;;;;;;;;4.50;1.75;;;;;;;;5093326;27;49771;-73
2023/04/11 06:35:52;;;;;;;;;3.00;1.50;;;;;;;;5110202;27;50071;-73
2023/04/11 06:38:17;;;;;;;;;2.75;2.00;;;;;;;;5110074;27;49879;-75
2023/04/11 06:40:42;;;;;;;;;7.50;4.00;;;;;;;;5111670;27;50032;-74
2023/04/11 06:43:08;;;;;;;;;2.50;2.25;;;;;;;;5106732;27;49667;-73
2023/04/11 06:45:33;;;;;;;;;7.00;4.00;;;;;;;;5111073;27;49877;-73
2023/04/11 06:47:58;;;;;;;;;2.25;1.50;;;;;;;;5111182;27;50146;-72
2023/04/11 06:50:23;;;;;;;;;2.25;1.75;;;;;;;;5111322;27;49964;-73
2023/04/11 06:52:48;;;;;;;;;4.50;1.00;;;;;;;;5092597;27;50049;-73
2023/04/11 06:55:14;;;;;;;;;2.75;1.75;;;;;;;;5111238;27;49886;-73
2023/04/11 06:57:39;;;;;;;;;3.50;2.50;;;;;;;;5110513;27;49807;-76
2023/04/11 07:00:06;;;;;;;;;2.50;2.50;;;;;;;;5111130;27;49765;-76
2023/04/11 07:02:34;;;;;;;;;4.50;3.75;;;;;;;;5109576;27;49825;-75
2023/04/11 07:04:59;;;;;;;;;1.50;1.25;;;;;;;;5102378;27;51070;-77
2023/04/11 07:07:24;;;;;;;;;1.50;1.50;;;;;;;;5106013;27;49931;-76
2023/04/11 07:09:50;;;;;;;;;3.50;1.00;;;;;;;;5111164;27;49788;-76
2023/04/11 07:12:15;;;;;;;;;2.00;1.25;;;;;;;;5108683;27;49975;-74
2023/04/11 07:14:40;;;;;;;;;3.50;2.00;;;;;;;;5103973;27;49967;-76
2023/04/11 07:17:05;;;;;;;;;3.50;1.25;;;;;;;;5111102;27;49630;-74
2023/04/11 07:19:30;;;;;;;;;4.25;3.25;;;;;;;;5108272;27;49983;-77
2023/04/11 07:21:55;;;;;;;;;2.75;1.75;;;;;;;;5110936;27;49967;-75
2023/04/11 07:24:21;;;;;;;;;6.50;2.75;;;;;;;;5109765;27;49879;-75
2023/04/11 07:26:49;;;;;;;;;2.25;1.00;;;;;;;;5110884;27;49785;-78
2023/04/11 07:29:14;;;;;;;;;2.00;1.75;;;;;;;;5110985;27;49963;-74
2023/04/11 07:31:40;;;;;;;;;1.75;1.00;;;;;;;;5110970;27;49889;-73
2023/04/11 07:34:05;;;;;;;;;4.50;3.00;;;;;;;;5108149;27;50860;-74
2023/04/11 07:36:31;;;;;;;;;2.00;2.00;;;;;;;;5089536;27;49844;-76
2023/04/11 07:38:58;;;;;;;;;2.75;2.25;;;;;;;;5108768;27;49790;-74
2023/04/11 07:41:23;;;;;;;;;6.00;4.25;;;;;;;;5108868;27;49701;-75
2023/04/11 07:43:49;;;;;;;;;7.00;4.00;;;;;;;;5087668;27;51705;-75
2023/04/11 07:46:14;;;;;;;;;1.00;1.00;;;;;;;;5090206;27;49800;-77
2023/04/11 07:48:40;;;;;;;;;1.00;1.00;;;;;;;;5089762;27;49974;-79
2023/04/11 07:51:05;;;;;;;;;3.25;2.00;;;;;;;;5109957;27;49919;-77
2023/04/11 07:53:31;;;;;;;;;9.25;2.50;;;;;;;;5104814;27;50098;-78
2023/04/11 07:55:56;;;;;;;;;4.00;3.00;;;;;;;;5105264;27;50258;-76
2023/04/11 07:58:22;;;;;;;;;2.00;2.00;;;;;;;;5104824;27;49683;-78
2023/04/11 08:00:49;;;;;;;;;1.50;0.50;;;;;;;;5110912;27;49756;-78
2023/04/11 08:03:15;;;;;;;;;2.50;1.25;;;;;;;;5102845;27;49877;-75
2023/04/11 08:05:40;;;;;;;;;2.75;2.00;;;;;;;;5104982;27;49719;-73
2023/04/11 08:08:05;;;;;;;;;5.00;2.25;;;;;;;;5109992;27;49673;-72
2023/04/11 08:10:31;;;;;;;;;5.00;2.00;;;;;;;;5079889;27;50254;-72
2023/04/11 08:12:57;;;;;;;;;3.00;2.75;;;;;;;;5108205;27;50822;-72
2023/04/11 08:15:22;;;;;;;;;1.00;1.00;;;;;;;;5105911;27;49660;-72
2023/04/11 08:17:48;;;;;;;;;2.00;2.00;;;;;;;;5101988;27;49681;-72
2023/04/11 08:20:14;;;;;;;;;4.00;1.00;;;;;;;;5107085;27;50021;-72
2023/04/11 08:22:40;;;;;;;;;3.75;2.50;;;;;;;;5101105;27;50618;-72
2023/04/11 08:25:07;;;;;;;;;3.00;3.00;;;;;;;;5098489;27;49768;-72
2023/04/11 08:27:32;;;;;;;;;1.00;1.00;;;;;;;;5080011;27;50142;-71
2023/04/11 08:29:58;;;;;;;;;2.75;2.75;;;;;;;;5099542;27;49835;-74
2023/04/11 08:32:23;;;;;;;;;3.00;1.50;;;;;;;;5095548;27;49891;-73
2023/04/11 08:34:48;;;;;;;;;5.00;4.00;;;;;;;;5098326;27;49813;-78
2023/04/11 08:37:14;;;;;;;;;4.00;2.50;;;;;;;;5096803;27;49764;-74
2023/04/11 08:39:39;;;;;;;;;3.75;1.25;;;;;;;;5098449;27;49796;-73
2023/04/11 08:42:04;;;;;;;;;2.00;1.00;;;;;;;;5097777;27;50045;-71
2023/04/11 08:44:29;;;;;;;;;1.00;1.00;;;;;;;;5098268;27;49738;-72
2023/04/11 08:46:55;;;;;;;;;4.25;4.25;;;;;;;;5096650;27;49942;-71
2023/04/11 08:49:20;;;;;;;;;4.75;3.00;;;;;;;;5099259;27;50135;-71
2023/04/11 08:51:45;;;;;;;;;5.25;2.75;;;;;;;;5097996;27;51101;-71
2023/04/11 08:54:11;;;;;;;;;5.00;2.50;;;;;;;;5096441;27;49993;-72
2023/04/11 08:56:39;;;;;;;;;2.50;2.50;;;;;;;;5097776;27;49799;-71
2023/04/11 08:59:04;;;;;;;;;2.50;2.50;;;;;;;;5097812;27;49832;-72
2023/04/11 09:01:30;;;;;;;;;4.00;3.25;;;;;;;;5099496;27;51048;-72
2023/04/11 09:03:57;;;;;;;;;5.25;3.25;;;;;;;;5097122;27;49805;-72
2023/04/11 09:06:22;;;;;;;;;4.00;2.00;;;;;;;;5099555;27;49879;-71
2023/04/11 09:08:47;;;;;;;;;5.50;2.00;;;;;;;;5097487;27;49826;-73
2023/04/11 09:11:13;;;;;;;;;4.25;2.50;;;;;;;;5097727;27;50905;-72
2023/04/11 09:13:38;;;;;;;;;2.50;1.00;;;;;;;;5097840;27;49921;-72
2023/04/11 09:16:04;;;;;;;;;1.75;1.00;;;;;;;;5098616;27;49751;-72
2023/04/11 09:18:31;;;;;;;;;2.75;2.75;;;;;;;;5098271;27;50148;-73
2023/04/11 09:21:02;;;;;;;;;5.00;3.50;;;;;;;;5099491;27;50078;-73
2023/04/11 09:23:27;;;;;;;;;2.50;1.00;;;;;;;;5104392;27;50187;-72
2023/04/11 09:25:52;;;;;;;;;3.75;2.25;;;;;;;;5107104;27;50821;-72
2023/04/11 09:28:18;;;;;;;;;2.50;2.50;;;;;;;;5108462;27;50628;-73
2023/04/11 09:30:51;;;;;;;;;2.00;2.00;;;;;;;;5089669;27;52323;-72
2023/04/11 09:33:17;;;;;;;;;1.00;1.00;;;;;;;;5108995;27;50242;-73
2023/04/11 09:35:42;;;;;;;;;5.00;2.25;;;;;;;;5107667;27;49849;-72
2023/04/11 09:38:08;;;;;;;;;0.75;0.75;;;;;;;;5107634;27;50171;-72
2023/04/11 09:40:40;;;;;;;;;2.25;0.75;;;;;;;;5109840;27;50482;-73
2023/04/11 09:43:06;;;;;;;;;2.00;2.00;;;;;;;;5108158;27;49751;-72
2023/04/11 09:45:31;;;;;;;;;2.00;1.00;;;;;;;;5112533;27;50004;-72
2023/04/11 09:47:57;;;;;;;;;6.25;4.25;;;;;;;;5093479;27;49685;-72
2023/04/11 09:50:23;;;;;;;;;2.00;1.50;;;;;;;;5111533;27;50577;-72
2023/04/11 09:52:49;;;;;;;;;3.00;2.00;;;;;;;;5093611;27;49804;-73
2023/04/11 09:55:23;;;;;;;;;4.00;1.25;;;;;;;;5112617;27;50146;-72
2023/04/11 09:57:52;;;;;;;;;0.50;0.50;;;;;;;;5106626;27;50234;-72
2023/04/11 10:00:23;;;;;;;;;0.00;0.00;;;;;;;;5108651;27;50105;-72
2023/04/11 10:02:51;;;;;;;;;3.00;1.00;;;;;;;;5108312;27;49916;-72
2023/04/11 10:05:17;;;;;;;;;4.00;2.50;;;;;;;;5108497;27;50185;-73
2023/04/11 10:07:44;;;;;;;;;1.75;1.75;;;;;;;;5107470;27;49939;-72
2023/04/11 10:10:14;;;;;;;;;1.00;1.00;;;;;;;;5108915;27;51010;-74
2023/04/11 10:12:39;;;;;;;;;4.50;3.00;;;;;;;;5108944;27;50135;-72
2023/04/11 10:15:07;;;;;;;;;4.00;3.00;;;;;;;;5107780;27;49780;-73
2023/04/11 10:17:32;;;;;;;;;3.75;1.00;;;;;;;;5108696;27;50109;-73
2023/04/11 10:22:41;;;;;;;;;1.75;1.50;;;;;;;;5056378;22;53090;-71
2023/04/11 10:25:17;;;;;;;;;3.50;2.25;;;;;;;;5115281;22;50477;-72
2023/04/11 10:27:49;;;;;;;;;2.00;2.00;;;;;;;;5064107;28;49797;-72
2023/04/11 10:30:15;;;;;;;;;3.25;2.25;;;;;;;;5078130;27;52645;-73
2023/04/11 10:32:43;;;;;;;;;2.00;2.00;;;;;;;;5065848;28;49878;-72
2023/04/11 10:35:08;;;;;;;;;4.75;3.25;;;;;;;;5066763;28;50525;-72
2023/04/11 10:37:34;;;;;;;;;1.25;1.25;;;;;;;;5063876;28;50117;-72
2023/04/11 10:39:59;;;;;;;;;1.00;1.00;;;;;;;;5062882;28;50867;-73
2023/04/11 10:42:25;;;;;;;;;3.00;1.00;;;;;;;;5079177;27;50217;-73
2023/04/11 10:45:10;;;;;;;;;2.25;1.75;;;;;;;;5064204;28;50487;-73
2023/04/11 10:47:35;;;;;;;;;2.25;1.00;;;;;;;;5061767;28;49832;-75
2023/04/11 10:50:00;;;;;;;;;3.50;3.00;;;;;;;;5061496;28;50494;-74
2023/04/11 10:52:26;;;;;;;;;2.00;1.75;;;;;;;;5058638;28;49789;-74
2023/04/11 10:54:51;;;;;;;;;2.25;1.50;;;;;;;;5062567;28;49951;-74
2023/04/11 10:57:17;;;;;;;;;2.25;1.00;;;;;;;;5062718;27;50429;-74
2023/04/11 10:59:48;;;;;;;;;2.00;2.00;;;;;;;;5063430;28;50118;-74
2023/04/11 11:02:14;;;;;;;;;4.25;3.00;;;;;;;;5065266;28;49951;-75
2023/04/11 11:04:39;;;;;;;;;1.00;1.00;;;;;;;;5065948;28;49889;-74
2023/04/11 11:07:06;;;;;;;;;2.50;2.50;;;;;;;;5064804;27;49794;-73
2023/04/11 11:09:32;;;;;;;;;1.25;1.25;;;;;;;;5066273;27;50880;-72
2023/04/11 11:12:04;;;;;;;;;1.75;1.00;;;;;;;;5068579;27;50044;-71
2023/04/11 11:14:29;;;;;;;;;0.25;0.25;;;;;;;;5062529;27;50196;-74
2023/04/11 11:16:54;;;;;;;;;3.00;1.25;;;;;;;;5062860;27;49864;-72
2023/04/11 11:19:19;;;;;;;;;2.75;2.00;;;;;;;;5062444;27;51848;-72
2023/04/11 11:21:45;;;;;;;;;4.25;1.50;;;;;;;;5064397;27;50025;-73
2023/04/11 11:24:10;;;;;;;;;2.75;1.00;;;;;;;;5061457;28;50256;-74
2023/04/11 11:26:39;;;;;;;;;2.25;2.25;;;;;;;;5063512;28;49715;-73
2023/04/11 11:29:04;;;;;;;;;2.00;0.50;;;;;;;;5058347;28;50644;-74
2023/04/11 11:31:40;;;;;;;;;4.50;2.00;;;;;;;;5062969;28;50056;-75
2023/04/11 11:34:06;;;;;;;;;6.25;4.00;;;;;;;;5048922;28;50269;-74
2023/04/11 11:36:33;;;;;;;;;2.00;1.00;;;;;;;;5068888;28;50775;-74
2023/04/11 11:38:58;;;;;;;;;2.00;2.00;;;;;;;;5066771;28;50875;-74
2023/04/11 11:41:23;;;;;;;;;2.25;0.75;;;;;;;;5066665;28;49769;-73
2023/04/11 11:43:49;;;;;;;;;4.00;1.00;;;;;;;;5069596;28;50045;-74
2023/04/11 11:46:14;;;;;;;;;1.75;1.00;;;;;;;;5069546;28;50001;-74
2023/04/11 11:48:42;;;;;;;;;3.50;2.50;;;;;;;;5067985;28;50031;-75
2023/04/11 11:51:08;;;;;;;;;6.25;4.50;;;;;;;;5068349;28;50246;-71
2023/04/11 11:53:33;;;;;;;;;1.50;1.50;;;;;;;;5066288;28;49814;-76
2023/04/11 11:55:58;;;;;;;;;3.00;1.00;;;;;;;;5069777;28;50161;-77
2023/04/11 11:58:24;;;;;;;;;0.50;0.50;;;;;;;;5068659;28;49756;-74
2023/04/11 12:00:50;;;;;;;;;1.75;0.75;;;;;;;;5069311;28;49806;-73
2023/04/11 12:03:19;;;;;;;;;1.75;1.75;;;;;;;;5049838;28;50208;-73
2023/04/11 12:05:46;;;;;;;;;2.50;2.00;;;;;;;;5068535;28;49719;-74
2023/04/11 12:08:11;;;;;;;;;2.00;2.00;;;;;;;;5067516;28;50692;-77
2023/04/11 12:10:40;;;;;;;;;1.50;1.50;;;;;;;;5049854;28;50006;-73
2023/04/11 12:13:19;;;;;;;;;0.75;0.75;;;;;;;;5068859;28;49843;-77
2023/04/11 12:15:48;;;;;;;;;2.50;1.50;;;;;;;;5068543;28;49789;-73
2023/04/11 12:18:13;;;;;;;;;3.00;2.00;;;;;;;;5050441;28;50694;-74
2023/04/11 12:20:39;;;;;;;;;2.25;1.25;;;;;;;;5068478;28;50041;-75
2023/04/11 12:23:04;;;;;;;;;0.75;0.00;;;;;;;;5068088;28;50138;-76
2023/04/11 12:25:30;;;;;;;;;1.00;1.00;;;;;;;;5067498;28;50359;-77
2023/04/11 12:27:55;;;;;;;;;1.00;1.00;;;;;;;;5063817;28;50781;-77
2023/04/11 12:30:21;;;;;;;;;1.25;1.00;;;;;;;;5062989;28;50067;-77
2023/04/11 12:32:46;;;;;;;;;1.50;1.50;;;;;;;;5041825;28;49884;-77
2023/04/11 12:35:11;;;;;;;;;2.00;1.00;;;;;;;;5067194;28;50011;-74
2023/04/11 12:37:37;;;;;;;;;2.00;2.00;;;;;;;;5067501;28;49728;-73
2023/04/11 12:40:08;;;;;;;;;1.50;1.50;;;;;;;;5067406;28;49774;-72
2023/04/11 12:42:33;;;;;;;;;1.75;1.75;;;;;;;;5068092;28;50090;-76
2023/04/11 12:44:58;;;;;;;;;3.00;1.00;;;;;;;;5069229;28;49908;-74
2023/04/11 12:47:23;;;;;;;;;2.00;1.00;;;;;;;;5066986;28;51690;-75
2023/04/11 12:49:49;;;;;;;;;3.25;1.00;;;;;;;;5068738;28;49760;-75
2023/04/11 12:52:14;;;;;;;;;0.75;0.75;;;;;;;;5068529;28;49720;-76
2023/04/11 12:54:39;;;;;;;;;2.25;0.75;;;;;;;;5068875;28;49743;-75
2023/04/11 12:57:06;;;;;;;;;0.75;0.25;;;;;;;;5068064;28;50451;-76
2023/04/11 12:59:31;;;;;;;;;1.00;0.25;;;;;;;;5069062;28;50071;-75
2023/04/11 13:01:56;;;;;;;;;4.00;2.50;;;;;;;;5044411;28;49771;-74
2023/04/11 13:04:22;;;;;;;;;0.00;0.00;;;;;;;;5072362;28;50056;-74
2023/04/11 13:06:47;;;;;;;;;1.00;1.00;;;;;;;;5071079;28;50641;-74
2023/04/11 13:09:13;;;;;;;;;3.00;1.00;;;;;;;;5071577;28;49777;-74
2023/04/11 13:11:38;;;;;;;;;1.50;1.00;;;;;;;;5069232;28;49723;-73
2023/04/11 13:14:03;;;;;;;;;1.25;0.25;;;;;;;;5071223;28;49662;-73
2023/04/11 13:16:29;;;;;;;;;1.00;0.00;;;;;;;;5052773;28;50586;-76
2023/04/11 13:18:54;;;;;;;;;1.25;1.25;;;;;;;;5071116;28;50222;-76
2023/04/11 13:21:19;;;;;;;;;3.75;3.00;;;;;;;;5071145;28;49914;-73
2023/04/11 13:23:44;;;;;;;;;1.00;1.00;;;;;;;;5072129;28;50144;-74
2023/04/11 13:26:10;;;;;;;;;0.50;0.50;;;;;;;;5071046;28;50846;-73
2023/04/11 13:28:37;;;;;;;;;2.25;0.50;;;;;;;;5071733;28;50274;-74
2023/04/11 13:31:03;;;;;;;;;2.75;1.00;;;;;;;;5071316;28;50067;-75
2023/04/11 13:33:28;;;;;;;;;1.00;1.00;;;;;;;;5071841;28;49696;-74
2023/04/11 13:35:53;;;;;;;;;0.00;0.00;;;;;;;;5071552;28;49854;-74
2023/04/11 13:38:18;;;;;;;;;1.25;1.00;;;;;;;;5065366;28;50129;-75
2023/04/11 13:40:43;;;;;;;;;1.00;1.00;;;;;;;;5071535;28;49890;-74
2023/04/11 13:43:09;;;;;;;;;1.75;1.00;;;;;;;;5071934;28;49989;-74
2023/04/11 13:45:34;;;;;;;;;0.75;0.75;;;;;;;;5071057;28;50438;-74
2023/04/11 13:48:00;;;;;;;;;1.75;1.00;;;;;;;;5071554;28;49711;-73
2023/04/11 13:50:26;;;;;;;;;1.50;1.50;;;;;;;;5071463;28;50008;-73
2023/04/11 13:52:51;;;;;;;;;3.00;1.00;;;;;;;;5071920;28;49954;-73
2023/04/11 13:55:16;;;;;;;;;3.00;1.50;;;;;;;;5070856;28;50694;-73
2023/04/11 14:00:44;;;;;;;;;1.00;1.00;;;;;;;;5066667;28;49917;-73
2023/04/11 14:03:10;;;;;;;;;2.00;0.00;;;;;;;;5071630;28;49676;-74
2023/04/11 14:05:35;;;;;;;;;1.00;0.00;;;;;;;;5070850;28;50492;-74
2023/04/11 14:08:01;;;;;;;;;1.75;0.00;;;;;;;;5059856;28;49779;-74
2023/04/11 14:10:26;;;;;;;;;1.00;1.00;;;;;;;;5064663;28;49918;-74
2023/04/11 14:12:51;;;;;;;;;2.50;2.50;;;;;;;;5070752;28;50100;-74
2023/04/11 14:15:17;;;;;;;;;1.25;1.25;;;;;;;;5071262;28;50564;-75
2023/04/11 14:17:42;;;;;;;;;1.00;1.00;;;;;;;;5071158;28;49847;-73
2023/04/11 14:20:10;;;;;;;;;1.50;0.00;;;;;;;;5071242;28;49933;-74
2023/04/11 14:22:35;;;;;;;;;4.50;2.00;;;;;;;;5053048;28;49738;-74
2023/04/11 14:25:00;;;;;;;;;1.50;0.50;;;;;;;;5070587;28;50597;-77
2023/04/11 14:27:26;;;;;;;;;4.00;1.50;;;;;;;;5052092;28;49768;-73
2023/04/11 14:29:51;;;;;;;;;5.00;2.00;;;;;;;;5071137;28;50203;-72
2023/04/11 14:32:17;;;;;;;;;1.00;1.00;;;;;;;;5070965;28;49995;-72
2023/04/11 14:34:42;;;;;;;;;4.00;2.00;;;;;;;;5070737;28;50752;-72
2023/04/11 14:37:07;;;;;;;;;1.75;1.75;;;;;;;;5070514;28;49701;-73
2023/04/11 14:39:32;;;;;;;;;0.75;0.75;;;;;;;;5071043;28;50205;-73
2023/04/11 14:42:00;;;;;;;;;1.00;1.00;;;;;;;;5070756;27;49680;-72
2023/04/11 14:44:25;;;;;;;;;1.25;0.75;;;;;;;;5063669;28;50583;-73
2023/04/11 14:46:50;;;;;;;;;2.50;2.00;;;;;;;;5070249;28;49742;-75
2023/04/11 14:49:15;;;;;;;;;0.50;0.50;;;;;;;;5070178;28;49846;-77
2023/04/11 14:51:41;;;;;;;;;1.00;1.00;;;;;;;;5070674;28;49998;-73
2023/04/11 14:54:06;;;;;;;;;2.00;2.00;;;;;;;;5070401;28;49841;-74
2023/04/11 14:56:31;;;;;;;;;1.00;0.25;;;;;;;;5070511;28;49749;-74
2023/04/11 14:58:56;;;;;;;;;0.00;0.00;;;;;;;;5052278;28;50051;-73
2023/04/11 15:01:21;;;;;;;;;0.75;0.75;;;;;;;;5070931;28;50222;-74
2023/04/11 15:03:47;;;;;;;;;1.75;1.00;;;;;;;;5067638;28;49709;-73
2023/04/11 15:06:12;;;;;;;;;1.00;1.00;;;;;;;;5070489;28;50071;-74
2023/04/11 15:08:38;;;;;;;;;1.00;0.50;;;;;;;;5069978;28;50376;-75
2023/04/11 15:11:04;;;;;;;;;0.00;0.00;;;;;;;;5070511;28;50446;-76
2023/04/11 15:13:29;;;;;;;;;2.25;1.00;;;;;;;;5069959;28;50664;-76
2023/04/11 15:16:01;;;;;;;;;0.00;0.00;;;;;;;;5070350;28;49731;-76
2023/04/11 15:18:27;;;;;;;;;1.50;1.50;;;;;;;;5070052;28;49787;-76
2023/04/11 15:20:53;;;;;;;;;2.50;1.00;;;;;;;;5070431;28;49790;-75
2023/04/11 15:23:19;;;;;;;;;1.00;0.75;;;;;;;;5068494;28;51330;-73
2023/04/11 15:25:51;;;;;;;;;0.25;0.25;;;;;;;;5069199;28;49765;-74
2023/04/11 15:28:16;;;;;;;;;1.25;1.00;;;;;;;;5070020;28;49717;-74
2023/04/11 15:30:46;;;;;;;;;1.50;1.00;;;;;;;;5069551;28;50056;-74
2023/04/11 15:33:11;;;;;;;;;2.25;0.00;;;;;;;;5069987;28;50021;-73